Orbital elements of COSMOS 970 DEB
| Launched | 20 December 1977 |
| Flight ended | – |
| Launch site | Tyuratam Missile and Space Center, Kazakhstan (Also known as Baikonur Cosmodrome) |
| Owner | Commonwealth of Independent States (former USSR) |
| NORAD ID | 10878 |
| Date fetched |
Epoch osculation |
Inc. [°] |
Ecc. | RA asc node [hr] |
Arg Peri. [°] |
Mean anom [°] |
Mean motion [rev/day] |
Abs. mag |
| Date fetched |
Epoch osculation |
Inc. [°] |
Ecc. | RA asc node [hr] |
Arg Peri. [°] |
Mean anom [°] |
Mean motion [rev/day] |
Abs. mag |
| 2026 May 03 17:57 | 2026 Apr 30 15:06:39 | 65.8393 | 0.01234 | 12.2629 | 243.7246 | 282.1246 | 13.65215 | – |
| 2026 May 02 17:57 | 2026 Apr 30 15:06:39 | 65.8393 | 0.01234 | 12.2629 | 243.7246 | 282.1246 | 13.65215 | – |
| 2026 May 01 17:56 | 2026 Apr 30 15:06:39 | 65.8393 | 0.01234 | 12.2629 | 243.7246 | 282.1246 | 13.65215 | – |
| 2026 Apr 30 17:56 | 2026 Apr 30 15:06:39 | 65.8393 | 0.01234 | 12.2629 | 243.7246 | 282.1246 | 13.65215 | – |
| 2026 Apr 29 17:57 | 2026 Apr 24 12:51:47 | 65.8401 | 0.01235 | 13.2499 | 246.4427 | 282.1246 | 13.65215 | – |
| 2026 Apr 28 17:56 | 2026 Apr 24 12:51:47 | 65.8401 | 0.01235 | 13.2499 | 246.4427 | 282.1246 | 13.65215 | – |
| 2026 Apr 27 17:58 | 2026 Apr 24 12:51:47 | 65.8401 | 0.01235 | 13.2499 | 246.4427 | 282.1246 | 13.65215 | – |
| 2026 Apr 26 17:58 | 2026 Apr 24 12:51:47 | 65.8401 | 0.01235 | 13.2499 | 246.4427 | 282.1246 | 13.65215 | – |
| 2026 Apr 25 17:58 | 2026 Apr 24 12:51:47 | 65.8401 | 0.01235 | 13.2499 | 246.4427 | 282.1246 | 13.65215 | – |
| 2026 Apr 24 17:59 | 2026 Apr 24 12:51:47 | 65.8401 | 0.01235 | 13.2499 | 246.4427 | 282.1246 | 13.65215 | – |
| 2026 Apr 23 17:57 | 2026 Apr 19 12:54:15 | 65.8400 | 0.01235 | 14.0595 | 248.6774 | 282.1246 | 13.65215 | – |
| 2026 Apr 22 17:57 | 2026 Apr 19 12:54:15 | 65.8400 | 0.01235 | 14.0595 | 248.6774 | 282.1246 | 13.65215 | – |
| 2026 Apr 21 17:57 | 2026 Apr 19 12:54:15 | 65.8400 | 0.01235 | 14.0595 | 248.6774 | 282.1246 | 13.65215 | – |
| 2026 Apr 20 17:57 | 2026 Apr 19 12:54:15 | 65.8400 | 0.01235 | 14.0595 | 248.6774 | 282.1246 | 13.65215 | – |
| 2026 Apr 19 17:58 | 2026 Apr 19 12:54:15 | 65.8400 | 0.01235 | 14.0595 | 248.6774 | 282.1246 | 13.65215 | – |
| 2026 Apr 18 17:56 | 2026 Apr 13 07:30:26 | 65.8398 | 0.01235 | 15.0677 | 251.4697 | 282.1246 | 13.65215 | – |
| 2026 Apr 16 17:57 | 2026 Apr 13 07:30:26 | 65.8398 | 0.01235 | 15.0677 | 251.4697 | 282.1246 | 13.65215 | – |
| 2026 Apr 14 17:57 | 2026 Apr 13 07:30:26 | 65.8398 | 0.01235 | 15.0677 | 251.4697 | 282.1246 | 13.65215 | – |
| 2026 Apr 13 17:57 | 2026 Apr 13 07:30:26 | 65.8398 | 0.01235 | 15.0677 | 251.4697 | 282.1246 | 13.65215 | – |
| 2026 Apr 12 17:57 | 2026 Apr 08 09:44:17 | 65.8395 | 0.01235 | 15.8626 | 253.6755 | 282.1246 | 13.65215 | – |
| 2026 Apr 11 17:57 | 2026 Apr 08 09:44:17 | 65.8395 | 0.01235 | 15.8626 | 253.6755 | 282.1246 | 13.65215 | – |
| 2026 Apr 10 17:58 | 2026 Apr 08 09:44:17 | 65.8395 | 0.01235 | 15.8626 | 253.6755 | 282.1246 | 13.65215 | – |
| 2026 Apr 09 18:01 | 2026 Apr 08 09:44:17 | 65.8395 | 0.01235 | 15.8626 | 253.6755 | 282.1246 | 13.65215 | – |
| 2026 Apr 08 17:57 | 2026 Apr 08 09:44:17 | 65.8395 | 0.01235 | 15.8626 | 253.6755 | 282.1246 | 13.65215 | – |
| 2026 Apr 07 17:57 | 2026 Apr 02 05:02:30 | 65.8388 | 0.01234 | 16.8662 | 256.4844 | 282.1246 | 13.65215 | – |
| 2026 Apr 06 17:57 | 2026 Apr 02 05:02:30 | 65.8388 | 0.01234 | 16.8662 | 256.4844 | 282.1246 | 13.65215 | – |